Time;durP1;ratioP1;P1;durP2;ratioP2;P2;SDS_P1;SDS_P2;PMS_P1;PMS_P2;Temp;Humidity;BMP_temperature;BMP_pressure;BME280_temperature;BME280_humidity;BME280_pressure;Samples;Min_cycle;Max_cycle;Signal;HPM_P1;HPM_P2
2023/08/23 00:01:44;;;;;;;5.60;3.80;;;28.30;65.60;;;;;;5013982;28;20213;-71
2023/08/23 00:04:11;;;;;;;4.37;4.00;;;28.30;65.90;;;;;;5014104;28;20293;-72
2023/08/23 00:06:38;;;;;;;4.63;3.57;;;28.20;66.10;;;;;;5014604;28;20226;-71
2023/08/23 00:09:06;;;;;;;4.30;3.90;;;28.20;66.50;;;;;;5013671;28;20611;-71
2023/08/23 00:11:33;;;;;;;4.70;4.30;;;28.10;66.60;;;;;;5013991;28;20234;-71
2023/08/23 00:14:00;;;;;;;5.07;4.00;;;28.10;66.60;;;;;;5014251;28;20224;-71
2023/08/23 00:16:27;;;;;;;4.17;3.77;;;28.00;66.50;;;;;;5014059;28;20214;-71
2023/08/23 00:18:54;;;;;;;6.00;3.90;;;28.00;66.80;;;;;;5014469;28;20198;-71
2023/08/23 00:21:21;;;;;;;4.90;4.17;;;28.00;67.60;;;;;;5013997;28;20225;-71
2023/08/23 00:23:48;;;;;;;5.27;4.30;;;28.00;66.80;;;;;;5013765;28;20229;-71
2023/08/23 00:26:16;;;;;;;4.50;4.10;;;28.00;67.00;;;;;;5014320;28;20317;-71
2023/08/23 00:28:44;;;;;;;5.30;4.80;;;27.90;67.20;;;;;;5013691;28;20238;-71
2023/08/23 00:31:11;;;;;;;4.53;4.13;;;27.90;67.40;;;;;;5013412;28;20718;-71
2023/08/23 00:33:37;;;;;;;5.07;4.53;;;27.80;67.60;;;;;;5013677;28;20202;-71
2023/08/23 00:36:05;;;;;;;5.67;4.20;;;27.80;67.70;;;;;;5013958;28;20580;-71
2023/08/23 00:38:32;;;;;;;6.13;4.40;;;27.70;67.90;;;;;;5013547;28;20209;-71
2023/08/23 00:40:58;;;;;;;4.90;4.33;;;27.70;68.30;;;;;;5013398;28;20245;-71
2023/08/23 00:43:26;;;;;;;5.07;4.37;;;27.60;68.30;;;;;;5004821;28;20204;-71
2023/08/23 00:45:54;;;;;;;6.57;4.50;;;27.60;68.60;;;;;;4993981;28;20214;-71
2023/08/23 00:48:21;;;;;;;4.93;4.07;;;27.60;68.80;;;;;;4993877;28;20211;-71
2023/08/23 00:50:48;;;;;;;6.30;4.30;;;27.50;68.70;;;;;;4997520;28;20198;-71
2023/08/23 00:53:15;;;;;;;4.50;4.10;;;27.50;68.70;;;;;;5013205;28;20240;-70
2023/08/23 00:55:42;;;;;;;5.20;4.53;;;27.50;68.80;;;;;;5013634;28;20205;-71
2023/08/23 00:58:10;;;;;;;5.73;4.53;;;27.40;69.00;;;;;;5012883;28;20328;-71
2023/08/23 01:00:39;;;;;;;5.17;4.10;;;27.30;69.10;;;;;;5013017;28;20226;-71
2023/08/23 01:03:06;;;;;;;5.40;4.10;;;27.30;69.30;;;;;;5013729;28;20213;-72
2023/08/23 01:05:42;;;;;;;4.60;4.13;;;27.30;69.40;;;;;;5013349;28;20208;-72
2023/08/23 01:08:20;;;;;;;5.40;4.20;;;27.30;69.40;;;;;;5012767;28;20237;-72
2023/08/23 01:10:52;;;;;;;4.87;4.43;;;27.20;69.60;;;;;;5012196;28;20364;-72
2023/08/23 01:13:28;;;;;;;6.00;5.20;;;27.20;69.90;;;;;;5012922;28;20703;-72
2023/08/23 01:15:59;;;;;;;4.60;4.20;;;27.10;70.40;;;;;;5012804;28;20726;-72
2023/08/23 01:18:28;;;;;;;5.80;4.60;;;27.10;70.50;;;;;;5013209;28;20196;-72
2023/08/23 01:20:55;;;;;;;5.90;4.50;;;27.00;70.50;;;;;;5011630;28;20219;-72
2023/08/23 01:23:26;;;;;;;6.10;4.33;;;27.00;70.70;;;;;;5013299;28;20211;-72
2023/08/23 01:25:53;;;;;;;4.73;4.33;;;27.00;70.90;;;;;;5013014;28;20202;-72
2023/08/23 01:28:23;;;;;;;5.37;4.23;;;26.90;70.80;;;;;;5012479;28;20241;-72
2023/08/23 01:30:51;;;;;;;4.97;4.47;;;26.90;71.00;;;;;;5012634;28;20231;-72
2023/08/23 01:33:23;;;;;;;5.10;4.60;;;26.90;70.90;;;;;;5012779;28;20238;-72
2023/08/23 01:35:56;;;;;;;6.97;4.70;;;26.80;70.80;;;;;;5012621;28;20232;-72
2023/08/23 01:38:26;;;;;;;5.27;4.57;;;26.80;71.00;;;;;;5012833;28;20200;-71
2023/08/23 01:40:55;;;;;;;6.50;4.97;;;26.80;71.40;;;;;;5011610;28;20209;-71
2023/08/23 01:43:22;;;;;;;4.83;4.43;;;26.70;71.60;;;;;;5012325;28;20196;-71
2023/08/23 01:45:49;;;;;;;5.30;4.80;;;26.70;71.80;;;;;;5012323;28;20231;-72
2023/08/23 01:48:15;;;;;;;5.27;4.43;;;26.60;71.90;;;;;;5012710;28;20236;-72
2023/08/23 01:50:42;;;;;;;6.00;4.67;;;26.60;72.00;;;;;;5011706;28;20263;-72
2023/08/23 01:53:09;;;;;;;4.50;4.20;;;26.60;72.10;;;;;;5012278;28;20224;-72
2023/08/23 01:55:37;;;;;;;5.27;4.73;;;26.60;72.10;;;;;;5012437;28;20567;-72
2023/08/23 01:58:04;;;;;;;4.77;4.37;;;26.60;72.30;;;;;;5012318;28;20229;-72
2023/08/23 02:00:31;;;;;;;4.87;4.43;;;26.60;72.20;;;;;;5012147;28;20221;-71
2023/08/23 02:02:58;;;;;;;5.40;4.90;;;26.60;72.20;;;;;;5012357;28;20224;-71
2023/08/23 02:05:25;;;;;;;4.63;4.23;;;26.50;72.30;;;;;;5011882;28;20572;-71
2023/08/23 02:07:51;;;;;;;4.93;4.43;;;26.50;72.30;;;;;;5011932;28;20230;-71
2023/08/23 02:10:18;;;;;;;4.80;4.30;;;26.40;72.30;;;;;;5011569;28;20717;-71
2023/08/23 02:12:47;;;;;;;6.40;4.60;;;26.40;72.60;;;;;;5012128;28;20263;-72
2023/08/23 02:15:14;;;;;;;4.60;4.20;;;26.30;72.90;;;;;;5011896;28;20227;-71
2023/08/23 02:17:41;;;;;;;5.37;4.87;;;26.30;73.00;;;;;;5012203;28;20233;-71
2023/08/23 02:20:09;;;;;;;4.87;4.47;;;26.20;73.00;;;;;;5011359;28;20211;-71
2023/08/23 02:22:35;;;;;;;6.40;5.30;;;26.20;73.30;;;;;;5010277;28;20202;-72
2023/08/23 02:25:02;;;;;;;5.60;5.10;;;26.20;74.20;;;;;;4992278;28;20222;-72
2023/08/23 02:27:29;;;;;;;11.53;5.67;;;26.10;73.60;;;;;;4992535;28;20208;-72
2023/08/23 02:29:57;;;;;;;7.07;5.03;;;26.00;73.70;;;;;;4992336;28;20203;-71
2023/08/23 02:32:25;;;;;;;7.40;5.33;;;25.90;74.40;;;;;;5004769;28;20237;-71
2023/08/23 02:34:52;;;;;;;5.53;5.03;;;25.80;74.60;;;;;;5011580;28;20585;-71
2023/08/23 02:37:19;;;;;;;6.27;4.80;;;25.80;74.90;;;;;;5012045;28;20236;-71
2023/08/23 02:39:46;;;;;;;5.37;4.87;;;25.70;74.90;;;;;;5011935;28;20530;-72
2023/08/23 02:42:12;;;;;;;5.40;4.90;;;25.70;74.90;;;;;;5011427;28;20205;-71
2023/08/23 02:44:39;;;;;;;7.70;4.67;;;25.80;75.00;;;;;;5009243;28;20227;-71
2023/08/23 02:47:08;;;;;;;5.43;4.93;;;25.70;75.00;;;;;;5011976;28;20230;-71
2023/08/23 02:49:34;;;;;;;5.53;4.87;;;25.70;75.00;;;;;;5011560;28;20207;-72
2023/08/23 02:52:01;;;;;;;6.67;4.87;;;25.80;75.20;;;;;;5011208;28;20223;-71
2023/08/23 02:54:28;;;;;;;5.00;4.60;;;25.80;75.20;;;;;;5011792;28;20562;-72
2023/08/23 02:56:55;;;;;;;5.67;5.17;;;25.80;75.20;;;;;;5011771;28;20242;-72
2023/08/23 02:59:22;;;;;;;6.53;4.70;;;25.80;75.70;;;;;;5011522;28;20224;-71
2023/08/23 03:01:49;;;;;;;5.83;5.00;;;25.80;75.30;;;;;;5011120;28;20216;-72
2023/08/23 03:04:17;;;;;;;5.03;4.63;;;25.70;75.20;;;;;;5011339;28;20550;-72
2023/08/23 03:06:44;;;;;;;5.93;5.17;;;25.70;75.20;;;;;;5011430;28;20220;-71
2023/08/23 03:09:10;;;;;;;6.27;5.67;;;25.70;75.00;;;;;;5011354;28;20235;-71
2023/08/23 03:11:37;;;;;;;6.23;5.60;;;25.60;75.00;;;;;;5010813;28;20199;-71
2023/08/23 03:14:04;;;;;;;5.27;4.87;;;25.50;75.40;;;;;;5011310;28;20231;-71
2023/08/23 03:16:31;;;;;;;5.67;5.10;;;25.40;75.70;;;;;;5011454;28;20567;-71
2023/08/23 03:18:58;;;;;;;6.13;5.53;;;25.40;76.60;;;;;;5011216;28;20203;-71
2023/08/23 03:21:26;;;;;;;5.33;4.73;;;25.40;75.90;;;;;;5011470;28;20339;-71
2023/08/23 03:23:53;;;;;;;6.67;5.30;;;25.30;75.80;;;;;;5011095;28;20204;-72
2023/08/23 03:26:19;;;;;;;5.27;4.77;;;25.30;75.70;;;;;;5011424;28;20244;-71
2023/08/23 03:28:46;;;;;;;5.63;5.13;;;25.30;75.90;;;;;;5011642;28;20207;-71
2023/08/23 03:31:13;;;;;;;7.03;5.87;;;25.30;76.10;;;;;;5011230;28;20208;-72
2023/08/23 03:33:40;;;;;;;6.10;5.33;;;25.30;76.20;;;;;;5012850;28;20234;-71
2023/08/23 03:36:07;;;;;;;6.57;5.57;;;25.30;76.20;;;;;;5014600;28;20206;-71
2023/08/23 03:38:35;;;;;;;5.43;5.03;;;25.30;76.30;;;;;;5014966;28;20261;-72
2023/08/23 03:41:02;;;;;;;5.70;5.20;;;25.30;76.40;;;;;;5014320;28;20200;-72
2023/08/23 03:43:29;;;;;;;5.77;5.27;;;25.30;77.10;;;;;;5005463;28;20580;-71
2023/08/23 03:45:56;;;;;;;6.17;5.43;;;25.30;76.30;;;;;;5007498;28;20232;-71
2023/08/23 03:48:23;;;;;;;5.40;4.90;;;25.30;76.20;;;;;;5014818;28;20575;-71
2023/08/23 03:50:50;;;;;;;5.83;4.97;;;25.30;76.30;;;;;;5014009;28;20241;-71
2023/08/23 03:53:16;;;;;;;6.47;5.23;;;25.20;76.30;;;;;;5014597;28;20228;-71
2023/08/23 03:55:45;;;;;;;6.80;6.00;;;25.20;76.20;;;;;;5014387;28;20227;-71
2023/08/23 03:58:11;;;;;;;6.33;5.60;;;25.20;76.50;;;;;;5014733;28;20571;-71
2023/08/23 04:00:38;;;;;;;6.63;5.30;;;25.10;76.60;;;;;;5013905;28;20261;-71
2023/08/23 04:03:06;;;;;;;7.00;5.63;;;25.10;76.70;;;;;;5014215;28;20219;-71
2023/08/23 04:05:39;;;;;;;6.10;5.60;;;25.00;76.50;;;;;;5014197;28;20379;-71
2023/08/23 04:08:06;;;;;;;6.83;5.50;;;25.10;76.70;;;;;;5013869;28;20243;-72
2023/08/23 04:10:33;;;;;;;7.30;5.63;;;25.00;76.90;;;;;;5014145;28;20207;-71
2023/08/23 04:13:01;;;;;;;6.33;5.73;;;25.00;77.10;;;;;;5014173;28;20241;-72
2023/08/23 04:15:28;;;;;;;6.00;5.50;;;25.00;77.20;;;;;;5013524;28;20218;-71
2023/08/23 04:17:55;;;;;;;5.80;5.20;;;24.90;77.30;;;;;;5014026;28;20210;-72
2023/08/23 04:20:22;;;;;;;6.63;5.47;;;24.90;77.30;;;;;;5014213;28;20211;-72
2023/08/23 04:22:48;;;;;;;6.33;5.80;;;24.90;77.30;;;;;;5013532;28;20218;-71
2023/08/23 04:25:15;;;;;;;6.43;5.73;;;24.90;77.30;;;;;;5013817;28;20233;-71
2023/08/23 04:27:42;;;;;;;6.40;5.80;;;24.90;77.30;;;;;;5013855;28;20207;-72
2023/08/23 04:30:12;;;;;;;6.50;5.57;;;24.90;77.40;;;;;;5013629;28;20207;-72
2023/08/23 04:32:39;;;;;;;5.97;5.47;;;24.90;77.60;;;;;;5013535;28;20208;-71
2023/08/23 04:35:07;;;;;;;6.83;5.37;;;24.80;77.60;;;;;;5013764;28;20298;-71
2023/08/23 04:37:33;;;;;;;8.47;5.93;;;24.80;78.00;;;;;;5013597;28;20213;-71
2023/08/23 04:40:00;;;;;;;5.77;5.17;;;24.80;77.90;;;;;;5013991;28;20579;-71
2023/08/23 04:42:31;;;;;;;6.43;5.17;;;24.80;77.80;;;;;;5013424;28;20227;-71
2023/08/23 04:44:59;;;;;;;6.03;5.30;;;24.80;78.00;;;;;;5012018;28;20219;-71
2023/08/23 04:47:27;;;;;;;6.43;5.67;;;24.70;78.10;;;;;;5013661;28;20214;-72
2023/08/23 04:49:54;;;;;;;7.43;5.13;;;24.70;78.20;;;;;;5013595;28;20547;-72
2023/08/23 04:52:21;;;;;;;7.27;5.60;;;24.70;78.40;;;;;;5013057;28;20742;-72
2023/08/23 04:54:48;;;;;;;8.63;6.50;;;24.60;78.60;;;;;;5013467;28;20239;-71
2023/08/23 04:57:15;;;;;;;8.33;6.63;;;24.60;78.70;;;;;;5013430;28;20234;-72
2023/08/23 04:59:41;;;;;;;11.37;7.60;;;24.60;78.90;;;;;;5012820;28;20237;-71
2023/08/23 05:02:08;;;;;;;12.13;7.13;;;24.60;78.90;;;;;;5013450;28;20198;-72
2023/08/23 05:04:38;;;;;;;7.43;6.60;;;24.50;79.10;;;;;;5013477;28;20407;-71
2023/08/23 05:07:05;;;;;;;9.80;6.83;;;24.50;79.20;;;;;;5013229;28;20234;-71
2023/08/23 05:09:32;;;;;;;17.17;9.07;;;24.50;79.30;;;;;;5012836;28;20249;-71
2023/08/23 05:11:59;;;;;;;6.63;5.90;;;24.50;79.30;;;;;;5012587;28;20237;-71
2023/08/23 05:14:26;;;;;;;6.40;5.80;;;24.50;79.20;;;;;;5012752;28;20231;-72
2023/08/23 05:16:52;;;;;;;7.27;6.40;;;24.50;79.10;;;;;;5013036;28;20247;-72
2023/08/23 05:19:19;;;;;;;7.57;5.37;;;24.60;79.10;;;;;;5013310;28;20556;-72
2023/08/23 05:21:47;;;;;;;6.10;5.60;;;24.60;79.20;;;;;;5012682;28;20215;-72
2023/08/23 05:24:14;;;;;;;6.20;5.20;;;24.70;79.40;;;;;;5013146;28;20230;-72
2023/08/23 05:26:41;;;;;;;6.77;6.17;;;24.70;79.40;;;;;;5012835;28;20210;-72
2023/08/23 05:29:08;;;;;;;6.43;5.80;;;24.70;79.70;;;;;;5012684;28;20231;-72
2023/08/23 05:31:35;;;;;;;6.77;6.20;;;24.70;79.90;;;;;;5012578;28;20207;-72
2023/08/23 05:34:01;;;;;;;6.50;6.00;;;24.70;80.00;;;;;;5012642;28;20222;-72
2023/08/23 05:36:29;;;;;;;6.13;5.53;;;24.80;80.10;;;;;;5012820;28;20297;-72
2023/08/23 05:39:02;;;;;;;6.50;5.90;;;24.80;80.20;;;;;;5012987;28;20625;-72
2023/08/23 05:41:29;;;;;;;7.60;5.70;;;24.80;80.30;;;;;;5012613;28;20274;-72
2023/08/23 05:43:56;;;;;;;6.00;5.50;;;24.80;80.50;;;;;;4999770;28;20200;-72
2023/08/23 05:46:23;;;;;;;5.97;5.37;;;24.80;80.50;;;;;;4992932;28;20594;-72
2023/08/23 05:48:50;;;;;;;7.07;6.30;;;24.80;80.60;;;;;;4992563;28;20207;-72
2023/08/23 05:51:17;;;;;;;7.30;6.10;;;24.90;80.60;;;;;;4992658;28;20694;-72
2023/08/23 05:53:44;;;;;;;6.83;5.73;;;24.90;80.70;;;;;;4992554;28;20231;-72
2023/08/23 05:56:12;;;;;;;6.67;5.47;;;24.90;80.50;;;;;;4992537;28;20236;-72
2023/08/23 05:58:38;;;;;;;6.20;5.63;;;25.00;80.50;;;;;;4992289;28;20238;-72
2023/08/23 06:01:05;;;;;;;5.73;5.23;;;25.00;80.40;;;;;;4992396;28;20676;-72
2023/08/23 06:03:32;;;;;;;6.33;5.63;;;25.10;80.20;;;;;;4992341;28;20224;-72
2023/08/23 06:05:59;;;;;;;6.50;5.90;;;25.10;80.50;;;;;;4992675;28;20250;-72
2023/08/23 06:08:26;;;;;;;5.67;4.97;;;25.20;80.40;;;;;;4992145;28;20441;-72
2023/08/23 06:10:53;;;;;;;6.50;6.00;;;25.30;80.10;;;;;;4991944;28;20268;-72
2023/08/23 06:13:22;;;;;;;8.73;7.87;;;25.30;79.70;;;;;;4992695;28;20224;-72
2023/08/23 06:15:49;;;;;;;6.90;6.20;;;25.30;79.90;;;;;;4992379;28;20235;-72
2023/08/23 06:18:16;;;;;;;7.03;6.30;;;25.40;79.80;;;;;;4992455;28;20219;-72
2023/08/23 06:20:45;;;;;;;7.63;6.83;;;25.40;79.80;;;;;;4992229;28;20730;-72
2023/08/23 06:23:12;;;;;;;8.07;7.27;;;25.50;79.30;;;;;;4992708;28;20311;-72
2023/08/23 06:25:39;;;;;;;7.37;6.67;;;25.50;79.20;;;;;;4991946;28;20207;-71
2023/08/23 06:28:06;;;;;;;6.60;6.00;;;25.50;78.70;;;;;;4992463;28;20247;-72
2023/08/23 06:30:36;;;;;;;7.23;6.53;;;25.60;78.70;;;;;;4992025;28;20204;-71
2023/08/23 06:33:05;;;;;;;8.07;6.10;;;25.60;78.20;;;;;;5005922;28;20566;-71
2023/08/23 06:35:33;;;;;;;7.50;6.80;;;25.70;78.00;;;;;;5011783;28;20203;-72
2023/08/23 06:38:00;;;;;;;7.87;7.07;;;25.80;77.90;;;;;;5011868;28;20715;-71
2023/08/23 06:40:27;;;;;;;7.53;6.50;;;25.80;77.60;;;;;;5011653;28;20251;-71
2023/08/23 06:42:53;;;;;;;7.17;6.37;;;25.90;77.50;;;;;;5011410;28;20202;-72
2023/08/23 06:45:20;;;;;;;7.33;6.63;;;26.00;77.40;;;;;;5012136;28;20278;-72
2023/08/23 06:47:49;;;;;;;7.17;6.47;;;26.00;77.10;;;;;;5011742;28;20220;-71
2023/08/23 06:50:16;;;;;;;8.30;6.20;;;26.10;76.90;;;;;;5011689;28;20235;-71
2023/08/23 06:52:43;;;;;;;6.80;6.20;;;26.10;76.70;;;;;;5011396;28;20661;-71
2023/08/23 06:55:10;;;;;;;7.10;6.40;;;26.20;76.40;;;;;;5011295;28;20335;-72
2023/08/23 06:57:37;;;;;;;7.27;6.57;;;26.30;76.30;;;;;;5011909;28;20246;-71
2023/08/23 07:00:04;;;;;;;9.50;7.33;;;26.30;75.80;;;;;;5011319;28;20671;-71
2023/08/23 07:02:31;;;;;;;7.10;5.97;;;26.30;76.10;;;;;;5011772;28;20212;-72
2023/08/23 07:05:00;;;;;;;7.07;5.87;;;26.40;75.00;;;;;;5011576;28;20298;-71
2023/08/23 07:07:27;;;;;;;6.03;5.53;;;26.40;75.10;;;;;;5012020;28;20231;-71
2023/08/23 07:09:54;;;;;;;6.43;5.87;;;26.50;74.80;;;;;;5015177;28;20318;-72
2023/08/23 07:12:21;;;;;;;6.17;5.43;;;26.50;75.00;;;;;;5014904;28;20279;-72
2023/08/23 07:14:49;;;;;;;5.57;5.07;;;26.60;75.00;;;;;;5015466;28;20319;-71
2023/08/23 07:17:16;;;;;;;5.10;4.70;;;26.70;74.40;;;;;;5015209;28;20213;-72
2023/08/23 07:19:43;;;;;;;8.20;5.63;;;26.80;74.10;;;;;;5013661;28;20719;-72
2023/08/23 07:22:11;;;;;;;6.37;4.97;;;26.90;73.70;;;;;;5015190;28;20388;-72
2023/08/23 07:24:38;;;;;;;5.57;5.03;;;26.90;73.30;;;;;;5014803;28;20240;-71
2023/08/23 07:27:05;;;;;;;5.27;4.60;;;27.00;73.50;;;;;;5015098;28;20219;-72
2023/08/23 07:29:32;;;;;;;5.90;5.30;;;27.10;73.50;;;;;;5015097;28;20236;-72
2023/08/23 07:31:59;;;;;;;6.80;5.63;;;27.10;73.00;;;;;;5015025;28;20279;-72
2023/08/23 07:34:27;;;;;;;5.53;4.90;;;27.20;73.40;;;;;;5014736;28;20236;-72
2023/08/23 07:36:54;;;;;;;6.20;4.70;;;27.20;73.30;;;;;;5015153;28;20220;-72
2023/08/23 07:39:23;;;;;;;5.70;4.50;;;27.30;73.10;;;;;;5014822;28;20571;-72
2023/08/23 07:41:50;;;;;;;6.50;5.30;;;27.40;72.70;;;;;;5014091;28;20234;-72
2023/08/23 07:44:17;;;;;;;6.27;4.73;;;27.40;72.20;;;;;;5014435;28;20218;-71
2023/08/23 07:46:44;;;;;;;10.63;5.40;;;27.50;72.20;;;;;;5014925;28;20209;-71
2023/08/23 07:49:11;;;;;;;5.40;4.73;;;27.60;72.50;;;;;;5014657;28;20208;-72
2023/08/23 07:51:38;;;;;;;5.07;4.57;;;27.70;71.90;;;;;;5014526;28;20221;-71
2023/08/23 07:54:05;;;;;;;6.73;4.77;;;27.80;72.20;;;;;;5014408;28;20234;-71
2023/08/23 07:56:33;;;;;;;7.50;4.80;;;27.80;72.20;;;;;;5014756;28;20613;-71
2023/08/23 07:59:00;;;;;;;7.73;4.67;;;27.90;72.90;;;;;;5014650;28;20348;-71
2023/08/23 08:01:27;;;;;;;5.17;4.67;;;28.00;71.90;;;;;;5014015;28;20724;-71
2023/08/23 08:03:54;;;;;;;5.67;4.07;;;28.10;71.70;;;;;;5014626;28;20210;-71
2023/08/23 08:06:21;;;;;;;4.87;4.33;;;28.10;71.10;;;;;;5014352;28;20238;-71
2023/08/23 08:08:47;;;;;;;5.93;4.20;;;28.20;71.30;;;;;;5013608;28;20320;-71
2023/08/23 08:11:15;;;;;;;4.93;4.47;;;28.20;71.00;;;;;;5013575;28;20329;-71
2023/08/23 08:13:44;;;;;;;4.50;4.10;;;28.30;70.40;;;;;;5013976;28;20210;-72
2023/08/23 08:16:12;;;;;;;5.83;4.43;;;28.40;70.40;;;;;;5014278;28;20230;-71
2023/08/23 08:18:40;;;;;;;6.67;4.47;;;28.50;70.40;;;;;;5014331;28;20207;-71
2023/08/23 08:21:07;;;;;;;5.50;4.00;;;28.50;70.00;;;;;;5014078;28;20214;-71
2023/08/23 08:23:34;;;;;;;6.93;4.50;;;28.60;70.20;;;;;;5013725;28;20233;-71
2023/08/23 08:26:02;;;;;;;5.23;4.37;;;28.70;69.60;;;;;;5013979;28;20462;-72
2023/08/23 08:28:29;;;;;;;5.23;4.53;;;28.80;69.20;;;;;;5014071;28;20645;-71
2023/08/23 08:30:57;;;;;;;5.27;4.40;;;28.80;69.20;;;;;;5013619;28;20262;-71
2023/08/23 08:33:24;;;;;;;4.63;4.13;;;28.90;69.40;;;;;;5013896;28;20223;-71
2023/08/23 08:35:51;;;;;;;5.37;4.40;;;29.00;68.70;;;;;;5014137;28;20246;-71
2023/08/23 08:38:18;;;;;;;4.93;4.13;;;29.10;68.20;;;;;;5013632;28;20210;-72
2023/08/23 08:40:45;;;;;;;5.17;4.60;;;29.10;68.10;;;;;;5013629;28;20250;-72
2023/08/23 08:43:12;;;;;;;4.50;4.10;;;29.20;68.00;;;;;;5013362;28;20246;-72
2023/08/23 08:45:39;;;;;;;4.80;4.10;;;29.30;68.10;;;;;;5014013;28;20321;-71
2023/08/23 08:48:08;;;;;;;4.27;3.87;;;29.40;67.60;;;;;;5013967;28;20635;-72
2023/08/23 08:50:35;;;;;;;5.27;4.30;;;29.50;68.50;;;;;;5012997;28;20316;-72
2023/08/23 08:53:04;;;;;;;5.50;4.60;;;29.60;67.70;;;;;;5013372;28;20250;-71
2023/08/23 08:55:31;;;;;;;7.23;4.20;;;29.70;67.20;;;;;;5013208;28;20222;-72
2023/08/23 08:58:00;;;;;;;6.50;4.13;;;29.70;66.50;;;;;;5013792;28;20233;-71
2023/08/23 09:00:28;;;;;;;6.57;3.97;;;29.70;65.90;;;;;;5013679;28;20227;-71
2023/08/23 09:02:56;;;;;;;5.57;4.03;;;29.80;66.60;;;;;;5013168;28;20321;-71
2023/08/23 09:05:25;;;;;;;4.80;4.40;;;29.90;66.00;;;;;;5013321;28;20257;-71
2023/08/23 09:07:53;;;;;;;4.40;3.80;;;30.00;66.00;;;;;;5013048;28;20273;-72
2023/08/23 09:10:20;;;;;;;4.80;4.30;;;30.10;65.90;;;;;;5013310;28;20223;-72
2023/08/23 09:12:46;;;;;;;4.23;3.63;;;30.20;65.50;;;;;;5013189;28;20210;-71
2023/08/23 09:15:13;;;;;;;5.23;4.10;;;30.30;65.20;;;;;;5013007;28;20435;-71
2023/08/23 09:17:40;;;;;;;4.63;3.67;;;30.40;65.10;;;;;;5013393;28;20246;-72
2023/08/23 09:20:08;;;;;;;5.67;3.67;;;30.50;65.10;;;;;;5012684;28;20643;-72
2023/08/23 09:22:37;;;;;;;6.67;4.10;;;30.60;64.50;;;;;;5012810;28;20203;-71
2023/08/23 09:25:04;;;;;;;4.80;3.90;;;30.70;64.20;;;;;;5012866;28;20305;-72
2023/08/23 09:27:32;;;;;;;6.47;3.83;;;30.70;63.80;;;;;;5012794;28;20253;-71
2023/08/23 09:30:02;;;;;;;3.97;3.60;;;30.80;63.90;;;;;;5012698;28;20261;-72
2023/08/23 09:32:29;;;;;;;4.60;3.80;;;30.90;63.50;;;;;;5012156;28;20226;-71
2023/08/23 09:34:57;;;;;;;6.23;3.80;;;31.00;63.40;;;;;;5012355;28;20330;-72
2023/08/23 09:37:24;;;;;;;4.57;3.90;;;31.10;62.80;;;;;;5012895;28;20247;-72
2023/08/23 09:39:52;;;;;;;4.63;3.77;;;31.20;62.30;;;;;;5012470;28;20194;-72
2023/08/23 09:42:20;;;;;;;5.93;3.97;;;31.30;62.70;;;;;;5012529;28;20219;-72
2023/08/23 09:44:49;;;;;;;4.73;3.90;;;31.50;61.90;;;;;;4993067;28;20210;-71
2023/08/23 09:47:21;;;;;;;6.23;3.57;;;31.50;60.80;;;;;;4993118;28;20204;-72
2023/08/23 09:49:51;;;;;;;5.33;3.80;;;31.60;60.90;;;;;;4992821;28;20591;-71
2023/08/23 09:52:20;;;;;;;5.03;3.70;;;31.70;60.90;;;;;;4992405;28;20229;-72
2023/08/23 09:55:03;;;;;;;3.80;3.40;;;31.80;60.50;;;;;;4992711;28;20240;-72
2023/08/23 09:57:31;;;;;;;3.80;3.33;;;31.90;59.80;;;;;;4992985;28;20193;-71
2023/08/23 09:59:59;;;;;;;5.50;3.43;;;32.00;60.50;;;;;;4993019;28;20312;-71
2023/08/23 10:02:27;;;;;;;6.03;3.90;;;32.10;59.80;;;;;;4992713;28;20210;-71
2023/08/23 10:04:54;;;;;;;6.00;3.80;;;32.20;59.80;;;;;;4992485;28;20212;-71
2023/08/23 10:07:22;;;;;;;4.33;3.50;;;32.40;59.50;;;;;;4992363;28;20736;-72
2023/08/23 10:09:50;;;;;;;4.70;3.30;;;32.40;59.20;;;;;;4992491;28;20230;-72
2023/08/23 10:12:19;;;;;;;4.20;3.80;;;32.50;59.80;;;;;;4992531;28;20496;-71
2023/08/23 10:14:50;;;;;;;4.30;3.83;;;32.60;58.90;;;;;;4992464;28;20234;-72
2023/08/23 10:17:20;;;;;;;4.87;3.70;;;32.70;57.90;;;;;;4992373;28;20198;-71
2023/08/23 10:19:49;;;;;;;6.43;3.83;;;32.90;57.90;;;;;;4992266;28;20215;-72
2023/08/23 10:22:18;;;;;;;7.53;3.90;;;33.00;57.70;;;;;;4992383;28;20257;-71
2023/08/23 10:24:47;;;;;;;4.17;3.77;;;33.00;56.60;;;;;;4992156;28;20226;-72
2023/08/23 10:27:14;;;;;;;3.90;3.50;;;33.10;56.70;;;;;;4992403;28;20218;-72
2023/08/23 10:29:42;;;;;;;7.77;3.30;;;33.20;56.40;;;;;;4992476;28;20235;-71
2023/08/23 10:32:10;;;;;;;3.97;3.37;;;33.30;55.50;;;;;;4991851;28;20245;-72
2023/08/23 10:34:39;;;;;;;4.90;3.30;;;33.40;55.30;;;;;;4992549;28;20237;-72
2023/08/23 10:37:15;;;;;;;4.00;3.57;;;33.40;54.90;;;;;;4992046;28;20215;-71
2023/08/23 10:39:50;;;;;;;5.10;3.23;;;33.60;54.40;;;;;;4992244;28;20679;-72
2023/08/23 10:42:17;;;;;;;4.00;3.47;;;33.70;54.20;;;;;;4992200;28;20626;-72
2023/08/23 10:44:47;;;;;;;4.90;3.27;;;33.80;53.90;;;;;;5015532;28;20689;-72
2023/08/23 10:47:16;;;;;;;4.10;3.50;;;33.90;53.00;;;;;;5015476;28;20321;-71
2023/08/23 10:49:44;;;;;;;5.20;3.33;;;33.90;51.50;;;;;;5016069;28;20219;-71
2023/08/23 10:52:11;;;;;;;4.00;3.57;;;33.90;51.50;;;;;;5015538;28;20210;-72
2023/08/23 10:54:38;;;;;;;3.30;3.00;;;33.90;51.50;;;;;;5015865;28;20211;-71
2023/08/23 10:57:05;;;;;;;3.70;3.20;;;34.00;52.00;;;;;;5015785;28;20211;-71
2023/08/23 10:59:32;;;;;;;6.00;3.30;;;34.10;51.90;;;;;;5016171;28;20236;-72
2023/08/23 11:02:01;;;;;;;4.50;3.10;;;34.20;51.90;;;;;;5015206;28;20206;-71
2023/08/23 11:04:28;;;;;;;3.67;3.00;;;34.40;51.00;;;;;;5015383;28;20333;-71
2023/08/23 11:06:55;;;;;;;3.40;3.07;;;34.40;51.00;;;;;;5015209;28;20215;-72
2023/08/23 11:09:22;;;;;;;3.37;3.07;;;34.60;50.50;;;;;;5015153;28;20247;-71
2023/08/23 11:11:49;;;;;;;3.70;3.40;;;34.60;50.80;;;;;;5015110;28;20262;-71
2023/08/23 11:14:16;;;;;;;3.40;3.10;;;34.70;51.30;;;;;;5015783;28;20219;-71
2023/08/23 11:16:44;;;;;;;6.03;3.53;;;34.80;51.40;;;;;;5016491;28;20230;-71
2023/08/23 11:19:13;;;;;;;7.90;3.53;;;34.90;51.00;;;;;;5015913;28;20530;-71
2023/08/23 11:21:40;;;;;;;5.00;3.40;;;35.00;51.00;;;;;;5015300;28;20235;-71
2023/08/23 11:24:07;;;;;;;3.60;3.30;;;35.00;50.10;;;;;;5015578;28;20203;-71
2023/08/23 11:26:35;;;;;;;5.97;3.20;;;35.10;50.20;;;;;;5015678;28;20208;-71
2023/08/23 11:29:02;;;;;;;5.90;3.20;;;35.20;50.20;;;;;;5014988;28;20227;-71
2023/08/23 11:31:29;;;;;;;5.73;3.87;;;35.30;49.60;;;;;;5014811;28;20237;-71
2023/08/23 11:33:57;;;;;;;4.67;3.27;;;35.30;49.60;;;;;;5015591;28;20236;-70
2023/08/23 11:36:27;;;;;;;3.80;3.37;;;35.40;49.40;;;;;;5016544;28;20290;-72
2023/08/23 11:38:54;;;;;;;4.93;3.53;;;35.40;47.90;;;;;;5015270;28;20214;-71
2023/08/23 11:41:31;;;;;;;5.00;3.80;;;35.30;48.60;;;;;;5014592;28;20204;-71
2023/08/23 11:43:58;;;;;;;3.43;3.13;;;35.30;47.80;;;;;;5001849;28;20215;-71
2023/08/23 11:46:25;;;;;;;4.37;3.20;;;35.30;48.40;;;;;;4995293;28;20620;-71
2023/08/23 11:48:51;;;;;;;4.27;3.10;;;35.20;47.90;;;;;;4994736;28;20298;-71
2023/08/23 11:51:18;;;;;;;3.67;3.37;;;35.30;48.60;;;;;;4995031;28;20650;-71
2023/08/23 11:53:54;;;;;;;4.57;3.20;;;35.40;48.50;;;;;;4994818;28;20295;-71
2023/08/23 11:56:22;;;;;;;5.53;3.90;;;35.60;48.50;;;;;;4994764;28;20242;-71
2023/08/23 11:58:48;;;;;;;4.37;3.43;;;35.60;47.70;;;;;;4994944;28;20227;-71
2023/08/23 12:01:15;;;;;;;4.03;3.37;;;35.70;47.70;;;;;;4994810;28;20635;-71
2023/08/23 12:03:42;;;;;;;4.23;3.70;;;35.80;48.60;;;;;;4994877;28;20208;-71
2023/08/23 12:06:09;;;;;;;4.97;3.93;;;35.90;48.10;;;;;;4994803;28;20210;-71
2023/08/23 12:08:36;;;;;;;4.37;3.70;;;36.00;47.30;;;;;;4994585;28;20234;-71
2023/08/23 12:11:05;;;;;;;4.77;3.93;;;36.00;47.90;;;;;;4994857;28;20553;-71
2023/08/23 12:13:32;;;;;;;4.30;3.83;;;36.00;47.20;;;;;;4994234;28;20290;-71
2023/08/23 12:15:59;;;;;;;4.30;3.70;;;36.00;48.00;;;;;;4994966;28;20231;-71
2023/08/23 12:18:26;;;;;;;3.90;3.50;;;36.10;47.60;;;;;;4994680;28;20294;-71
2023/08/23 12:20:52;;;;;;;4.80;3.63;;;36.10;47.50;;;;;;4994664;28;20233;-70
2023/08/23 12:23:19;;;;;;;4.23;3.50;;;36.20;47.00;;;;;;4994537;28;20229;-71
2023/08/23 12:25:46;;;;;;;4.00;3.20;;;36.20;46.60;;;;;;4994700;28;20606;-71
2023/08/23 12:28:14;;;;;;;3.37;2.80;;;36.20;47.00;;;;;;4994438;28;20207;-71
2023/08/23 12:30:41;;;;;;;3.43;3.13;;;36.30;46.40;;;;;;4994401;28;20234;-71
2023/08/23 12:33:08;;;;;;;3.70;3.40;;;36.30;47.00;;;;;;4994345;28;20207;-71
2023/08/23 12:35:35;;;;;;;4.67;3.43;;;36.40;46.60;;;;;;4994285;28;20230;-71
2023/08/23 12:38:02;;;;;;;4.17;3.10;;;36.50;46.00;;;;;;4994495;28;20234;-71
2023/08/23 12:40:29;;;;;;;5.07;3.50;;;36.60;45.90;;;;;;4993982;28;20227;-71
2023/08/23 12:42:56;;;;;;;3.70;3.40;;;36.70;46.10;;;;;;4998222;28;20227;-71
2023/08/23 12:45:24;;;;;;;3.33;3.03;;;36.70;45.10;;;;;;5013752;28;20214;-71
2023/08/23 12:47:51;;;;;;;4.80;3.00;;;36.70;44.70;;;;;;5013748;28;20219;-71